Time;durP1;ratioP1;P1;durP2;ratioP2;P2;SDS_P1;SDS_P2;PMS_P1;PMS_P2;Temp;Humidity;BMP_temperature;BMP_pressure;BME280_temperature;BME280_humidity;BME280_pressure;Samples;Min_cycle;Max_cycle;Signal;HPM_P1;HPM_P2
2023/05/16 00:00:26;;;;;;;10.95;9.20;;;20.00;1.00;;;;;;5034278;28;20021;-70
2023/05/16 00:02:52;;;;;;;13.65;10.52;;;20.00;1.00;;;;;;5027350;28;20026;-70
2023/05/16 00:05:18;;;;;;;12.23;9.32;;;20.00;1.00;;;;;;5038568;28;20029;-70
2023/05/16 00:07:45;;;;;;;14.00;9.85;;;19.90;1.00;;;;;;5037014;28;20101;-70
2023/05/16 00:10:11;;;;;;;10.23;9.10;;;19.80;1.00;;;;;;5037924;28;20108;-70
2023/05/16 00:12:38;;;;;;;10.80;9.90;;;19.90;1.00;;;;;;5034291;28;20029;-70
2023/05/16 00:15:07;;;;;;;11.52;10.35;;;19.80;1.00;;;;;;5043860;28;20022;-70
2023/05/16 00:17:34;;;;;;;11.02;9.95;;;19.80;1.00;;;;;;5045089;28;20028;-70
2023/05/16 00:20:01;;;;;;;10.32;9.18;;;19.80;1.00;;;;;;5028568;28;20526;-71
2023/05/16 00:22:27;;;;;;;11.90;9.55;;;19.70;1.00;;;;;;5035802;28;20027;-70
2023/05/16 00:24:53;;;;;;;10.23;9.27;;;19.80;1.00;;;;;;5039322;28;20033;-70
2023/05/16 00:27:18;;;;;;;10.38;9.40;;;19.70;1.00;;;;;;5034819;28;20068;-71
2023/05/16 00:29:44;;;;;;;11.70;9.00;;;19.70;1.00;;;;;;5037193;28;20061;-70
2023/05/16 00:32:10;;;;;;;12.23;9.75;;;19.60;1.00;;;;;;5035757;28;20445;-70
2023/05/16 00:34:36;;;;;;;11.07;10.07;;;19.60;1.00;;;;;;5035247;28;20501;-70
2023/05/16 00:37:02;;;;;;;11.93;10.48;;;19.50;1.00;;;;;;5038948;28;20117;-71
2023/05/16 00:39:27;;;;;;;10.02;9.23;;;19.50;1.00;;;;;;5032709;28;20430;-71
2023/05/16 00:41:53;;;;;;;10.93;9.77;;;19.60;1.00;;;;;;5034336;28;20034;-70
2023/05/16 00:44:19;;;;;;;11.60;10.57;;;19.50;1.00;;;;;;5035222;28;20026;-71
2023/05/16 00:46:45;;;;;;;11.82;8.77;;;19.50;1.00;;;;;;5035926;28;20037;-70
2023/05/16 00:49:11;;;;;;;10.35;9.35;;;19.50;1.00;;;;;;5033556;28;20049;-70
2023/05/16 00:51:38;;;;;;;11.68;10.23;;;19.40;1.00;;;;;;5033519;28;20487;-70
2023/05/16 00:54:05;;;;;;;13.10;9.27;;;19.50;1.00;;;;;;5035485;28;20029;-71
2023/05/16 00:56:31;;;;;;;11.40;10.02;;;19.40;1.00;;;;;;5037926;28;20033;-70
2023/05/16 00:58:57;;;;;;;10.15;9.18;;;19.40;1.00;;;;;;5031946;28;20533;-70
2023/05/16 01:01:24;;;;;;;13.30;10.18;;;19.40;1.00;;;;;;5036448;28;20526;-70
2023/05/16 01:03:50;;;;;;;15.25;11.40;;;19.40;1.00;;;;;;5021250;28;21549;-70
2023/05/16 01:06:16;;;;;;;13.15;10.18;;;19.40;1.00;;;;;;5037047;28;20033;-70
2023/05/16 01:08:42;;;;;;;10.73;9.68;;;19.30;1.00;;;;;;5040751;28;20499;-70
2023/05/16 01:11:22;;;;;;;10.18;9.38;;;19.30;1.00;;;;;;5039303;28;20034;-70
2023/05/16 01:14:09;;;;;;;12.73;10.65;;;19.30;1.00;;;;;;5030818;28;20026;-70
2023/05/16 01:17:12;;;;;;;11.25;10.05;;;19.30;1.00;;;;;;5028017;28;20386;-70
2023/05/16 01:19:54;;;;;;;11.07;10.07;;;19.20;1.00;;;;;;5062268;28;20072;-72
2023/05/16 01:22:30;;;;;;;10.75;9.68;;;19.20;1.00;;;;;;5028724;28;20066;-70
2023/05/16 01:25:12;;;;;;;12.25;11.05;;;19.20;1.00;;;;;;5042084;28;20126;-70
2023/05/16 01:27:38;;;;;;;13.50;10.35;;;19.10;1.00;;;;;;5030490;28;20371;-71
2023/05/16 01:30:15;;;;;;;12.32;11.23;;;19.10;1.00;;;;;;5032296;28;20038;-71
2023/05/16 01:32:41;;;;;;;11.52;10.30;;;19.10;1.00;;;;;;5031209;28;20084;-70
2023/05/16 01:35:09;;;;;;;12.18;10.85;;;19.10;1.00;;;;;;5032904;28;20057;-70
2023/05/16 01:37:43;;;;;;;11.88;10.70;;;19.00;1.00;;;;;;5032838;28;20060;-71
2023/05/16 01:40:18;;;;;;;11.85;10.70;;;19.10;1.00;;;;;;5033497;28;20104;-72
2023/05/16 01:42:47;;;;;;;11.88;10.77;;;19.00;1.00;;;;;;5035323;28;20042;-72
2023/05/16 01:45:28;;;;;;;11.90;10.75;;;18.90;1.00;;;;;;5035757;28;20037;-71
2023/05/16 01:48:16;;;;;;;11.85;10.27;;;19.00;1.00;;;;;;5031570;28;20033;-71
2023/05/16 01:50:50;;;;;;;11.43;10.30;;;18.90;1.00;;;;;;5023250;28;20044;-71
2023/05/16 01:53:22;;;;;;;10.77;9.65;;;18.90;1.00;;;;;;5036083;28;20418;-71
2023/05/16 01:55:51;;;;;;;11.25;9.85;;;18.90;1.00;;;;;;5031694;28;20045;-70
2023/05/16 01:58:20;;;;;;;13.82;10.85;;;18.80;1.00;;;;;;5033883;28;20028;-71
2023/05/16 02:00:46;;;;;;;10.20;9.27;;;18.80;1.00;;;;;;5034204;28;20029;-71
2023/05/16 02:03:12;;;;;;;10.73;9.60;;;18.80;1.00;;;;;;5031688;28;20021;-71
2023/05/16 02:05:37;;;;;;;10.77;9.77;;;18.70;1.00;;;;;;5030051;28;20080;-71
2023/05/16 02:08:03;;;;;;;9.65;8.68;;;18.80;1.00;;;;;;5034762;28;20112;-71
2023/05/16 02:10:29;;;;;;;11.18;9.82;;;18.70;1.00;;;;;;5034780;28;20091;-71
2023/05/16 02:12:55;;;;;;;10.38;9.38;;;18.70;1.00;;;;;;5034243;28;20021;-71
2023/05/16 02:15:20;;;;;;;10.02;9.13;;;18.70;1.00;;;;;;5033803;28;20071;-71
2023/05/16 02:17:47;;;;;;;10.65;9.25;;;18.70;1.00;;;;;;5031473;28;20040;-71
2023/05/16 02:20:13;;;;;;;10.57;9.20;;;18.60;1.00;;;;;;5031435;28;20029;-71
2023/05/16 02:22:39;;;;;;;9.93;9.02;;;18.60;1.00;;;;;;5032125;28;20029;-71
2023/05/16 02:25:05;;;;;;;10.43;9.43;;;18.60;1.00;;;;;;5033294;28;20045;-71
2023/05/16 02:27:31;;;;;;;9.15;8.35;;;18.50;1.00;;;;;;5031584;28;20017;-69
2023/05/16 02:29:58;;;;;;;10.75;9.30;;;18.50;1.00;;;;;;5035322;28;20034;-70
2023/05/16 02:32:23;;;;;;;9.63;8.73;;;18.50;1.00;;;;;;5031532;28;20108;-70
2023/05/16 02:34:49;;;;;;;10.65;9.73;;;18.50;1.00;;;;;;5035659;28;20108;-70
2023/05/16 02:37:15;;;;;;;10.10;9.10;;;18.40;1.00;;;;;;5044836;28;20511;-70
2023/05/16 02:39:40;;;;;;;11.95;8.95;;;18.50;1.00;;;;;;5039038;28;20036;-70
2023/05/16 02:42:06;;;;;;;10.20;9.15;;;18.50;1.00;;;;;;5037909;28;20037;-70
2023/05/16 02:44:32;;;;;;;9.90;9.00;;;18.50;1.00;;;;;;5033132;28;20025;-70
2023/05/16 02:46:58;;;;;;;12.50;9.25;;;18.40;1.00;;;;;;5033563;28;20075;-70
2023/05/16 02:49:24;;;;;;;11.63;9.48;;;18.50;1.00;;;;;;5035958;28;20032;-70
2023/05/16 02:51:49;;;;;;;12.05;9.93;;;18.40;1.00;;;;;;5038196;28;20067;-70
2023/05/16 02:54:15;;;;;;;11.18;9.40;;;18.40;1.00;;;;;;5039850;28;20109;-70
2023/05/16 02:56:41;;;;;;;10.50;9.50;;;18.40;1.00;;;;;;5033458;28;20030;-70
2023/05/16 02:59:07;;;;;;;10.23;8.73;;;18.40;1.00;;;;;;5035751;28;20029;-71
2023/05/16 03:01:33;;;;;;;10.57;9.18;;;18.40;1.00;;;;;;5037036;28;20030;-70
2023/05/16 03:03:59;;;;;;;11.35;9.35;;;18.30;1.00;;;;;;5033308;28;20035;-70
2023/05/16 03:06:25;;;;;;;12.77;9.02;;;18.30;1.00;;;;;;5034989;28;20036;-70
2023/05/16 03:08:51;;;;;;;10.30;9.35;;;18.30;1.00;;;;;;5038223;28;20029;-70
2023/05/16 03:11:21;;;;;;;9.32;8.43;;;18.30;1.00;;;;;;5032078;28;20387;-70
2023/05/16 03:13:48;;;;;;;9.65;8.60;;;18.30;1.00;;;;;;5035996;28;20379;-70
2023/05/16 03:16:14;;;;;;;10.00;9.05;;;18.30;1.00;;;;;;5026409;28;20040;-69
2023/05/16 03:18:40;;;;;;;9.75;8.88;;;18.30;1.00;;;;;;5032635;28;20514;-69
2023/05/16 03:21:05;;;;;;;9.90;8.98;;;18.30;1.00;;;;;;5033192;28;20033;-70
2023/05/16 03:23:31;;;;;;;9.25;8.45;;;18.30;1.00;;;;;;5042071;28;20021;-70
2023/05/16 03:25:57;;;;;;;9.18;8.38;;;18.30;1.00;;;;;;5033302;28;20036;-69
2023/05/16 03:28:23;;;;;;;10.88;8.45;;;18.20;1.00;;;;;;5037381;28;20164;-70
2023/05/16 03:30:49;;;;;;;12.07;9.15;;;18.20;1.00;;;;;;5037428;28;20088;-70
2023/05/16 03:33:15;;;;;;;9.77;8.88;;;18.20;1.00;;;;;;5040026;28;20044;-69
2023/05/16 03:35:41;;;;;;;9.52;8.70;;;18.20;1.00;;;;;;5037275;28;20033;-69
2023/05/16 03:38:07;;;;;;;9.88;8.98;;;18.10;1.00;;;;;;5036923;28;20031;-69
2023/05/16 03:40:32;;;;;;;9.70;8.10;;;18.10;1.00;;;;;;5033222;28;20112;-69
2023/05/16 03:42:58;;;;;;;10.18;9.23;;;18.20;1.00;;;;;;5035813;28;20045;-69
2023/05/16 03:45:24;;;;;;;9.77;8.80;;;18.10;1.00;;;;;;5038463;28;20036;-69
2023/05/16 03:47:50;;;;;;;9.80;8.65;;;18.20;1.00;;;;;;5035284;28;20022;-69
2023/05/16 03:50:16;;;;;;;10.52;8.77;;;18.10;1.00;;;;;;5036951;28;20064;-69
2023/05/16 03:52:41;;;;;;;10.73;8.55;;;18.10;1.00;;;;;;5042547;28;20039;-70
2023/05/16 03:55:08;;;;;;;9.77;8.88;;;18.10;1.00;;;;;;5044034;28;20124;-69
2023/05/16 03:57:35;;;;;;;9.70;8.70;;;18.00;1.00;;;;;;5036447;28;20040;-69
2023/05/16 04:00:02;;;;;;;9.52;8.63;;;18.00;1.00;;;;;;5038265;28;20376;-69
2023/05/16 04:02:28;;;;;;;10.02;8.48;;;18.00;1.00;;;;;;5036419;28;20379;-69
2023/05/16 04:04:54;;;;;;;8.93;8.20;;;17.90;1.00;;;;;;5045672;28;20032;-70
2023/05/16 04:07:19;;;;;;;10.05;8.80;;;17.90;1.00;;;;;;5033470;28;20033;-69
2023/05/16 04:09:45;;;;;;;9.77;8.68;;;17.90;1.00;;;;;;5036476;28;20372;-69
2023/05/16 04:12:11;;;;;;;10.15;9.15;;;17.90;1.00;;;;;;5043654;28;20359;-69
2023/05/16 04:14:37;;;;;;;9.43;8.48;;;17.90;1.00;;;;;;5033296;28;20037;-69
2023/05/16 04:17:03;;;;;;;10.35;8.45;;;17.80;1.00;;;;;;5035549;28;20052;-69
2023/05/16 04:19:28;;;;;;;9.40;8.55;;;17.80;1.00;;;;;;5036041;28;20124;-70
2023/05/16 04:21:54;;;;;;;10.80;8.82;;;17.80;1.00;;;;;;5033422;28;20033;-69
2023/05/16 04:24:20;;;;;;;9.45;8.45;;;17.80;1.00;;;;;;5032143;28;20032;-69
2023/05/16 04:26:46;;;;;;;10.77;8.77;;;17.80;1.00;;;;;;5034940;28;20036;-69
2023/05/16 04:29:13;;;;;;;9.52;8.63;;;17.80;1.00;;;;;;5035545;28;20379;-69
2023/05/16 04:31:38;;;;;;;12.50;8.65;;;17.80;1.00;;;;;;5051401;28;20045;-69
2023/05/16 04:34:04;;;;;;;10.45;9.00;;;17.80;1.00;;;;;;5035929;28;20359;-69
2023/05/16 04:36:30;;;;;;;10.23;8.70;;;17.80;1.00;;;;;;5031120;28;20395;-69
2023/05/16 04:38:56;;;;;;;9.40;8.60;;;17.80;1.00;;;;;;5034840;28;20051;-69
2023/05/16 04:41:22;;;;;;;11.15;8.70;;;17.80;1.00;;;;;;5035343;28;20090;-69
2023/05/16 04:43:48;;;;;;;9.75;8.77;;;17.80;1.00;;;;;;5036550;28;20132;-69
2023/05/16 04:46:15;;;;;;;11.63;10.32;;;17.80;1.00;;;;;;5039829;28;20068;-70
2023/05/16 04:48:41;;;;;;;11.52;10.45;;;17.80;1.00;;;;;;5044689;28;20395;-69
2023/05/16 04:51:06;;;;;;;17.25;13.35;;;17.80;1.00;;;;;;5039065;28;20048;-69
2023/05/16 04:53:33;;;;;;;15.63;13.88;;;17.80;1.00;;;;;;5035013;28;20018;-69
2023/05/16 04:55:59;;;;;;;16.23;14.45;;;17.90;1.00;;;;;;5033829;28;20038;-69
2023/05/16 04:58:25;;;;;;;16.67;14.88;;;17.80;1.00;;;;;;5034310;28;20913;-70
2023/05/16 05:00:51;;;;;;;18.00;16.10;;;17.80;1.00;;;;;;5034512;28;20052;-69
2023/05/16 05:03:17;;;;;;;18.58;16.77;;;17.80;1.00;;;;;;5047257;28;20017;-69
2023/05/16 05:05:42;;;;;;;17.73;16.02;;;17.80;1.00;;;;;;5032014;28;20557;-69
2023/05/16 05:08:08;;;;;;;20.00;18.13;;;17.80;1.00;;;;;;5030282;28;20044;-69
2023/05/16 05:10:34;;;;;;;19.38;17.60;;;17.80;1.00;;;;;;5036332;28;20064;-69
2023/05/16 05:13:00;;;;;;;19.77;17.88;;;17.90;1.00;;;;;;5033424;28;20163;-69
2023/05/16 05:15:26;;;;;;;20.27;18.30;;;17.90;1.00;;;;;;5023054;28;20105;-69
2023/05/16 05:17:52;;;;;;;20.95;18.92;;;17.80;1.00;;;;;;5031036;28;20037;-69
2023/05/16 05:20:17;;;;;;;19.77;17.85;;;17.80;1.00;;;;;;5032033;28;20021;-68
2023/05/16 05:22:43;;;;;;;20.50;18.60;;;17.90;1.00;;;;;;5034841;28;20036;-69
2023/05/16 05:25:09;;;;;;;21.08;18.80;;;17.90;1.00;;;;;;5035338;28;20025;-69
2023/05/16 05:27:35;;;;;;;19.63;17.75;;;17.90;1.00;;;;;;5035734;28;20029;-69
2023/05/16 05:30:02;;;;;;;20.48;18.45;;;17.90;1.00;;;;;;5035691;28;20033;-69
2023/05/16 05:32:28;;;;;;;20.27;18.38;;;17.90;1.00;;;;;;5039715;28;20837;-68
2023/05/16 05:34:53;;;;;;;21.85;19.58;;;18.00;1.00;;;;;;5032011;28;20018;-69
2023/05/16 05:37:19;;;;;;;19.73;17.92;;;18.00;1.00;;;;;;5032560;28;20030;-68
2023/05/16 05:39:45;;;;;;;20.77;18.65;;;18.10;1.00;;;;;;5034865;28;20041;-68
2023/05/16 05:42:11;;;;;;;22.80;20.60;;;18.10;1.00;;;;;;5032964;28;20047;-68
2023/05/16 05:44:37;;;;;;;22.80;20.42;;;18.20;1.00;;;;;;5032577;28;20072;-69
2023/05/16 05:47:05;;;;;;;23.15;20.98;;;18.20;1.00;;;;;;5033065;28;20026;-68
2023/05/16 05:49:31;;;;;;;23.45;20.80;;;18.20;1.00;;;;;;5033221;28;20101;-69
2023/05/16 05:51:57;;;;;;;21.88;19.88;;;18.20;1.00;;;;;;5034373;28;20060;-67
2023/05/16 05:54:23;;;;;;;23.08;20.75;;;18.20;1.00;;;;;;5040669;28;20476;-66
2023/05/16 05:56:48;;;;;;;24.38;21.98;;;18.30;1.00;;;;;;5031758;28;20483;-67
2023/05/16 05:59:14;;;;;;;24.38;22.08;;;18.30;1.00;;;;;;5029962;28;20036;-66
2023/05/16 06:01:41;;;;;;;24.95;22.52;;;18.30;1.00;;;;;;5032488;28;20036;-67
2023/05/16 06:04:06;;;;;;;22.85;20.67;;;18.30;1.00;;;;;;5031740;28;20041;-67
2023/05/16 06:06:32;;;;;;;24.38;21.92;;;18.30;1.00;;;;;;5037321;28;20029;-68
2023/05/16 06:08:58;;;;;;;24.30;22.10;;;18.30;1.00;;;;;;5038456;28;20041;-68
2023/05/16 06:11:24;;;;;;;22.42;20.33;;;18.30;1.00;;;;;;5034217;28;20486;-67
2023/05/16 06:13:51;;;;;;;23.55;21.27;;;18.30;1.00;;;;;;5031225;28;20147;-68
2023/05/16 06:16:16;;;;;;;25.13;21.75;;;18.30;1.00;;;;;;5031498;28;20033;-68
2023/05/16 06:18:42;;;;;;;22.77;20.48;;;18.30;1.00;;;;;;5032333;28;20036;-69
2023/05/16 06:21:08;;;;;;;24.95;21.55;;;18.30;1.00;;;;;;5035573;28;20048;-69
2023/05/16 06:23:34;;;;;;;23.45;21.33;;;18.30;1.00;;;;;;5031167;28;20114;-68
2023/05/16 06:26:01;;;;;;;22.02;19.85;;;18.30;1.00;;;;;;5031088;28;20032;-68
2023/05/16 06:28:27;;;;;;;22.95;20.67;;;18.30;1.00;;;;;;5037804;28;20029;-67
2023/05/16 06:30:52;;;;;;;24.13;21.55;;;18.40;1.00;;;;;;5035086;28;20033;-68
2023/05/16 06:33:18;;;;;;;24.52;22.08;;;18.30;1.00;;;;;;5034068;28;20033;-68
2023/05/16 06:35:44;;;;;;;24.80;22.27;;;18.40;1.00;;;;;;5033179;28;20113;-68
2023/05/16 06:38:10;;;;;;;25.67;22.98;;;18.40;1.00;;;;;;5030996;28;20029;-67
2023/05/16 06:40:36;;;;;;;23.90;21.55;;;18.50;1.00;;;;;;5028136;28;20033;-68
2023/05/16 06:43:02;;;;;;;25.05;22.75;;;18.50;1.00;;;;;;5035416;28;20414;-68
2023/05/16 06:45:27;;;;;;;24.42;22.33;;;18.50;1.00;;;;;;5036079;28;20025;-68
2023/05/16 06:47:54;;;;;;;24.58;22.05;;;18.60;1.00;;;;;;5036101;28;20032;-67
2023/05/16 06:50:20;;;;;;;23.77;19.70;;;18.60;1.00;;;;;;5029282;28;20029;-62
2023/05/16 06:52:46;;;;;;;22.05;19.77;;;18.60;1.00;;;;;;5031187;28;20438;-65
2023/05/16 06:55:11;;;;;;;18.80;17.00;;;18.70;1.00;;;;;;5037041;28;20029;-66
2023/05/16 06:57:37;;;;;;;19.38;17.23;;;18.70;1.00;;;;;;5033961;28;20063;-65
2023/05/16 07:00:03;;;;;;;16.17;14.48;;;18.80;1.00;;;;;;5034127;28;20026;-65
2023/05/16 07:02:29;;;;;;;17.30;15.27;;;18.80;1.00;;;;;;5038393;28;20038;-65
2023/05/16 07:04:55;;;;;;;16.63;15.00;;;18.90;1.00;;;;;;5034423;28;20033;-65
2023/05/16 07:07:20;;;;;;;16.58;14.75;;;18.90;1.00;;;;;;5028573;28;20029;-65
2023/05/16 07:09:46;;;;;;;17.63;14.25;;;18.90;1.00;;;;;;5032884;28;20369;-65
2023/05/16 07:12:12;;;;;;;16.13;14.48;;;18.90;1.00;;;;;;5034729;28;20487;-65
2023/05/16 07:14:37;;;;;;;15.95;14.63;;;18.90;1.00;;;;;;5035381;28;20104;-65
2023/05/16 07:17:03;;;;;;;18.98;13.90;;;19.00;1.00;;;;;;5036522;28;20022;-66
2023/05/16 07:19:29;;;;;;;13.43;12.02;;;19.10;1.00;;;;;;5035777;28;20018;-66
2023/05/16 07:21:54;;;;;;;13.45;12.13;;;19.20;1.00;;;;;;5034407;28;20096;-65
2023/05/16 07:24:20;;;;;;;9.23;8.10;;;19.20;1.00;;;;;;5032293;28;20533;-65
2023/05/16 07:26:46;;;;;;;9.63;8.70;;;19.10;1.00;;;;;;5037469;28;20025;-65
2023/05/16 07:29:11;;;;;;;10.00;8.57;;;19.20;1.00;;;;;;5038097;28;20105;-65
2023/05/16 07:31:37;;;;;;;10.52;7.43;;;19.10;1.00;;;;;;5034835;28;20469;-65
2023/05/16 07:34:03;;;;;;;8.13;6.95;;;19.10;1.00;;;;;;5035965;28;20037;-65
2023/05/16 07:36:29;;;;;;;7.75;7.03;;;19.20;1.00;;;;;;5039388;28;20026;-65
2023/05/16 07:38:54;;;;;;;10.90;7.47;;;19.20;1.00;;;;;;5036684;28;20029;-65
2023/05/16 07:41:20;;;;;;;7.95;7.25;;;19.20;1.00;;;;;;5038868;28;20029;-64
2023/05/16 07:43:46;;;;;;;9.93;8.65;;;19.30;1.00;;;;;;5039581;28;20045;-65
2023/05/16 07:46:13;;;;;;;9.50;8.50;;;19.30;1.00;;;;;;5038853;28;20053;-65
2023/05/16 07:48:38;;;;;;;8.98;8.27;;;19.30;1.00;;;;;;5034887;28;20029;-65
2023/05/16 07:51:04;;;;;;;10.63;9.05;;;19.40;1.00;;;;;;5032778;28;20541;-65
2023/05/16 07:53:30;;;;;;;9.93;8.93;;;19.40;1.00;;;;;;5038582;28;20021;-65
2023/05/16 07:55:55;;;;;;;11.00;9.82;;;19.50;1.00;;;;;;5039700;28;20032;-65
2023/05/16 07:58:21;;;;;;;12.95;10.30;;;19.40;1.00;;;;;;5040583;28;20022;-64
2023/05/16 08:00:47;;;;;;;11.32;10.15;;;19.40;1.00;;;;;;5039057;28;20040;-64
2023/05/16 08:03:12;;;;;;;11.68;10.52;;;19.30;1.00;;;;;;5038862;28;20485;-65
2023/05/16 08:05:38;;;;;;;12.90;10.50;;;19.30;1.00;;;;;;5034547;28;20033;-66
2023/05/16 08:08:05;;;;;;;11.95;10.85;;;19.40;1.00;;;;;;5038826;28;20021;-65
2023/05/16 08:10:30;;;;;;;14.52;11.30;;;19.40;1.00;;;;;;5033514;28;20021;-65
2023/05/16 08:12:56;;;;;;;14.43;11.93;;;19.40;1.00;;;;;;5037018;28;20095;-66
2023/05/16 08:15:22;;;;;;;13.15;12.00;;;19.40;1.00;;;;;;5051242;28;20546;-66
2023/05/16 08:17:47;;;;;;;12.73;11.63;;;19.40;1.00;;;;;;5041932;28;20483;-66
2023/05/16 08:20:13;;;;;;;14.25;12.85;;;19.40;1.00;;;;;;5034720;28;20060;-66
2023/05/16 08:22:39;;;;;;;15.80;14.07;;;19.40;1.00;;;;;;5031241;28;20056;-66
2023/05/16 08:25:05;;;;;;;14.90;13.07;;;19.30;1.00;;;;;;5033803;28;20030;-65
2023/05/16 08:27:31;;;;;;;14.00;11.80;;;19.40;1.00;;;;;;5032611;28;20113;-65
2023/05/16 08:29:57;;;;;;;12.10;11.00;;;19.40;1.00;;;;;;5034967;28;20105;-66
2023/05/16 08:32:22;;;;;;;11.13;10.02;;;19.40;1.00;;;;;;5035876;28;20044;-65
2023/05/16 08:34:48;;;;;;;10.15;9.20;;;19.50;1.00;;;;;;5034309;28;20040;-66
2023/05/16 08:37:14;;;;;;;12.82;9.60;;;19.50;1.00;;;;;;5032041;28;20414;-66
2023/05/16 08:39:40;;;;;;;9.77;8.40;;;19.50;1.00;;;;;;5036712;28;20018;-65
2023/05/16 08:42:06;;;;;;;8.93;8.02;;;19.40;1.00;;;;;;5033812;28;20045;-65
2023/05/16 08:44:33;;;;;;;8.52;7.03;;;19.40;1.00;;;;;;5034624;28;20036;-66
2023/05/16 08:47:17;;;;;;;8.07;7.28;;;19.50;1.00;;;;;;5033390;28;20072;-66
2023/05/16 08:49:46;;;;;;;8.77;7.75;;;19.50;1.00;;;;;;5034782;28;20399;-66
2023/05/16 08:52:16;;;;;;;7.85;7.13;;;19.40;1.00;;;;;;5034814;28;20048;-66
2023/05/16 08:54:43;;;;;;;8.10;6.68;;;19.40;1.00;;;;;;5037933;28;20033;-66
2023/05/16 08:57:09;;;;;;;6.35;4.22;;;19.50;1.00;;;;;;5043711;28;20116;-66
2023/05/16 08:59:35;;;;;;;5.32;3.30;;;19.30;1.00;;;;;;5035801;28;20112;-66
2023/05/16 09:02:00;;;;;;;5.18;2.75;;;19.40;1.00;;;;;;5037096;28;20032;-66
2023/05/16 09:04:26;;;;;;;5.57;2.67;;;19.30;1.00;;;;;;5033338;28;20022;-66
2023/05/16 09:06:53;;;;;;;3.70;2.42;;;19.20;1.00;;;;;;5034680;28;20548;-66
2023/05/16 09:09:18;;;;;;;5.32;2.63;;;19.20;1.00;;;;;;5032558;28;20025;-66
2023/05/16 09:11:44;;;;;;;6.50;3.60;;;19.20;1.00;;;;;;5045102;28;20056;-65
2023/05/16 09:14:10;;;;;;;5.35;2.58;;;19.20;1.00;;;;;;5034879;28;20172;-66
2023/05/16 09:16:35;;;;;;;3.80;2.50;;;19.20;1.00;;;;;;5033037;28;20033;-66
2023/05/16 09:19:01;;;;;;;3.42;2.45;;;19.20;1.00;;;;;;5035193;28;20029;-66
2023/05/16 09:21:30;;;;;;;5.32;2.65;;;19.10;1.00;;;;;;5037179;28;20025;-65
2023/05/16 09:24:01;;;;;;;4.10;2.47;;;19.10;1.00;;;;;;5032462;28;20028;-65
2023/05/16 09:26:27;;;;;;;3.13;2.20;;;19.10;1.00;;;;;;5033931;28;20372;-65
2023/05/16 09:28:56;;;;;;;5.97;2.60;;;19.10;1.00;;;;;;5039474;28;20140;-65
2023/05/16 09:31:25;;;;;;;2.45;2.05;;;19.10;1.00;;;;;;5035351;28;20046;-65
2023/05/16 09:33:52;;;;;;;10.70;9.65;;;19.00;1.00;;;;;;5040071;28;20514;-66
2023/05/16 09:36:18;;;;;;;7.05;3.90;;;19.10;1.00;;;;;;5025955;28;20426;-66
2023/05/16 09:38:44;;;;;;;5.72;3.15;;;19.10;1.00;;;;;;5037132;28;20121;-65
2023/05/16 09:41:10;;;;;;;7.32;2.40;;;19.10;1.00;;;;;;5039213;28;20067;-66
2023/05/16 09:43:41;;;;;;;6.55;4.38;;;18.90;1.00;;;;;;5031751;28;20056;-66
2023/05/16 09:46:07;;;;;;;7.68;3.92;;;18.80;1.00;;;;;;5037687;28;20026;-66
2023/05/16 09:48:33;;;;;;;22.17;5.03;;;18.90;1.00;;;;;;5027284;28;20454;-66
2023/05/16 09:51:03;;;;;;;5.25;3.78;;;18.90;1.00;;;;;;5036073;28;20037;-66
2023/05/16 09:53:31;;;;;;;6.50;3.00;;;19.00;1.00;;;;;;5034984;28;20017;-65
2023/05/16 09:56:09;;;;;;;6.15;3.58;;;18.90;1.00;;;;;;5035841;28;20037;-65
2023/05/16 09:58:40;;;;;;;6.45;3.70;;;19.00;1.00;;;;;;5034979;28;20025;-65
2023/05/16 10:01:07;;;;;;;4.70;3.13;;;19.00;1.00;;;;;;5032963;28;20083;-65
2023/05/16 10:03:37;;;;;;;6.07;3.90;;;18.90;1.00;;;;;;5038313;28;20026;-65
2023/05/16 10:06:07;;;;;;;8.30;4.07;;;18.90;1.00;;;;;;5029977;28;20040;-66
2023/05/16 10:08:37;;;;;;;4.03;2.95;;;19.00;1.00;;;;;;5032270;28;20033;-66
2023/05/16 10:11:04;;;;;;;2.53;2.30;;;19.10;1.00;;;;;;5031509;28;20114;-66
2023/05/16 10:13:32;;;;;;;4.60;2.60;;;19.10;1.00;;;;;;5032728;28;20402;-65
2023/05/16 10:16:01;;;;;;;7.30;2.65;;;19.10;1.00;;;;;;5037685;28;20028;-65
2023/05/16 10:18:31;;;;;;;4.65;2.38;;;19.10;1.00;;;;;;5029916;28;20379;-66
2023/05/16 10:21:03;;;;;;;3.40;2.30;;;19.00;1.00;;;;;;5033064;28;20029;-65
2023/05/16 10:23:30;;;;;;;2.72;2.47;;;19.10;1.00;;;;;;5039272;28;20025;-65
2023/05/16 10:25:57;;;;;;;2.97;2.70;;;19.20;1.00;;;;;;5038247;28;20029;-65
2023/05/16 10:28:24;;;;;;;2.50;2.30;;;19.20;1.00;;;;;;5036748;28;20117;-65
2023/05/16 10:30:50;;;;;;;4.30;2.90;;;19.20;1.00;;;;;;5032990;28;20033;-65
2023/05/16 10:33:18;;;;;;;4.28;2.92;;;19.20;1.00;;;;;;5033380;28;20329;-66
2023/05/16 10:35:45;;;;;;;4.30;2.72;;;19.30;1.00;;;;;;5033449;28;20021;-65
2023/05/16 10:38:16;;;;;;;4.22;2.55;;;19.30;1.00;;;;;;5033514;28;20026;-65
2023/05/16 10:40:42;;;;;;;3.67;2.55;;;19.30;1.00;;;;;;5040222;28;20786;-65
2023/05/16 10:43:08;;;;;;;2.95;2.58;;;19.30;1.00;;;;;;5036013;28;20053;-65
2023/05/16 10:45:40;;;;;;;4.35;2.70;;;19.40;1.00;;;;;;5035994;28;20538;-66
2023/05/16 10:48:08;;;;;;;2.60;2.40;;;19.40;1.00;;;;;;5036154;28;20028;-66
2023/05/16 10:50:38;;;;;;;3.88;3.03;;;19.40;1.00;;;;;;5034468;28;20131;-65
2023/05/16 10:53:22;;;;;;;4.55;3.58;;;19.40;1.00;;;;;;5036127;28;20044;-65
2023/05/16 10:56:06;;;;;;;6.80;3.42;;;19.30;1.00;;;;;;5034509;28;20029;-66
2023/05/16 10:58:39;;;;;;;3.05;2.75;;;19.30;1.00;;;;;;5040988;28;20028;-66
2023/05/16 11:01:26;;;;;;;6.75;2.58;;;19.30;1.00;;;;;;5041386;28;20116;-65
2023/05/16 11:06:32;;;;;;;3.58;3.28;;;19.40;1.00;;;;;;5032736;28;20762;-66
2023/05/16 11:09:10;;;;;;;4.65;3.20;;;19.40;1.00;;;;;;5040279;28;20034;-67
2023/05/16 11:11:46;;;;;;;3.15;2.60;;;19.50;1.00;;;;;;5034993;28;20040;-66
2023/05/16 11:14:28;;;;;;;3.75;3.28;;;19.50;1.00;;;;;;5033710;28;20155;-66
2023/05/16 11:17:00;;;;;;;5.28;3.83;;;19.60;1.00;;;;;;5039964;28;20025;-66
2023/05/16 11:19:31;;;;;;;4.45;3.40;;;19.60;1.00;;;;;;5038534;28;20029;-66
2023/05/16 11:22:14;;;;;;;5.30;4.80;;;19.60;1.00;;;;;;5041746;28;20109;-65
2023/05/16 11:25:05;;;;;;;5.57;3.33;;;19.70;1.00;;;;;;5043549;28;20486;-66
2023/05/16 11:27:43;;;;;;;3.97;3.58;;;19.40;1.00;;;;;;5034341;28;20026;-66
2023/05/16 11:30:09;;;;;;;4.53;3.50;;;19.40;1.00;;;;;;5022769;28;20037;-65
2023/05/16 11:32:37;;;;;;;6.05;4.03;;;19.30;1.00;;;;;;5033510;28;20087;-66
2023/05/16 11:35:07;;;;;;;4.43;4.03;;;19.30;1.00;;;;;;5047255;28;20108;-66
2023/05/16 11:37:40;;;;;;;3.88;3.47;;;19.30;1.00;;;;;;5035916;28;20051;-66
2023/05/16 11:40:08;;;;;;;8.57;5.00;;;19.30;1.00;;;;;;5036561;28;20033;-65
2023/05/16 11:42:38;;;;;;;6.22;4.60;;;19.30;1.00;;;;;;5037520;28;20035;-64
2023/05/16 11:45:11;;;;;;;5.93;3.40;;;19.20;1.00;;;;;;5045409;28;20485;-67
2023/05/16 11:47:41;;;;;;;4.93;3.90;;;19.20;1.00;;;;;;5036192;28;20041;-66
2023/05/16 11:50:14;;;;;;;5.70;4.72;;;19.20;1.00;;;;;;5041082;28;20378;-66
2023/05/16 11:52:43;;;;;;;3.53;3.25;;;19.30;1.00;;;;;;5033954;28;20108;-66
2023/05/16 11:55:10;;;;;;;4.55;3.75;;;19.30;1.00;;;;;;5034994;28;20025;-65
2023/05/16 11:57:37;;;;;;;4.97;3.60;;;19.40;1.00;;;;;;5033232;28;20080;-66
2023/05/16 12:00:25;;;;;;;3.70;3.30;;;18.90;1.00;;;;;;5041194;28;20356;-64
2023/05/16 12:02:53;;;;;;;2.97;2.78;;;19.10;1.00;;;;;;5039632;28;20034;-65
2023/05/16 12:05:24;;;;;;;3.28;2.85;;;19.20;1.00;;;;;;5031266;28;20044;-66
2023/05/16 12:07:52;;;;;;;4.10;3.42;;;19.40;1.00;;;;;;5037382;28;20048;-66
2023/05/16 12:10:18;;;;;;;4.47;3.10;;;19.50;1.00;;;;;;5035164;28;20526;-67
2023/05/16 12:12:47;;;;;;;3.90;3.60;;;19.50;1.00;;;;;;5033423;28;20120;-66
2023/05/16 12:15:13;;;;;;;5.65;3.75;;;19.50;1.00;;;;;;5035010;28;20028;-65
2023/05/16 12:17:40;;;;;;;5.38;3.45;;;19.60;1.00;;;;;;5036625;28;20099;-66
2023/05/16 12:20:13;;;;;;;4.65;3.03;;;19.50;1.00;;;;;;5035475;28;20505;-66
2023/05/16 12:22:47;;;;;;;3.35;3.00;;;19.50;1.00;;;;;;5048926;28;20111;-66
2023/05/16 12:25:32;;;;;;;3.80;3.50;;;19.50;1.00;;;;;;5040145;28;20045;-65
2023/05/16 12:28:00;;;;;;;3.85;3.05;;;19.40;1.00;;;;;;5036045;28;20495;-68
2023/05/16 12:30:27;;;;;;;5.03;4.53;;;19.30;1.00;;;;;;5034429;28;20045;-69
2023/05/16 12:32:57;;;;;;;4.30;3.55;;;19.30;1.00;;;;;;5036876;28;20022;-67
2023/05/16 12:35:29;;;;;;;7.10;4.82;;;19.20;1.00;;;;;;5037961;28;20021;-63
2023/05/16 12:37:55;;;;;;;4.43;4.07;;;19.40;1.00;;;;;;5036691;28;20028;-65
2023/05/16 12:40:22;;;;;;;4.72;4.32;;;19.40;1.00;;;;;;5032457;28;21480;-65
2023/05/16 12:42:52;;;;;;;5.13;4.60;;;19.50;1.00;;;;;;5032629;28;20064;-58
2023/05/16 12:45:18;;;;;;;4.10;3.70;;;19.50;1.00;;;;;;5038016;28;20108;-69
2023/05/16 12:47:44;;;;;;;4.55;4.00;;;19.40;1.00;;;;;;5033997;28;20112;-60
2023/05/16 12:50:15;;;;;;;5.25;4.07;;;19.50;1.00;;;;;;5032802;28;20483;-66
2023/05/16 12:52:51;;;;;;;5.07;4.65;;;19.40;1.00;;;;;;5034205;28;20053;-64